Time;durP1;ratioP1;P1;durP2;ratioP2;P2;SDS_P1;SDS_P2;PMS_P1;PMS_P2;Temp;Humidity;BMP_temperature;BMP_pressure;BME280_temperature;BME280_humidity;BME280_pressure;Samples;Min_cycle;Max_cycle;Signal;HPM_P1;HPM_P2
2023/02/09 00:00:06;;;;;;;39.20;21.35;;;-1.40;99.90;;;;;;5075103;28;20687;-62
2023/02/09 00:02:37;;;;;;;36.40;21.10;;;-1.30;99.90;;;;;;5075076;28;20206;-63
2023/02/09 00:05:04;;;;;;;36.67;21.15;;;-1.30;99.90;;;;;;5075040;28;20206;-61
2023/02/09 00:07:30;;;;;;;32.78;21.63;;;-1.30;99.90;;;;;;5075981;28;20203;-61
2023/02/09 00:09:57;;;;;;;31.50;20.30;;;-1.30;99.90;;;;;;5077243;28;20210;-63
2023/02/09 00:15:08;;;;;;;39.75;21.77;;;-1.30;99.90;;;;;;5078352;28;20183;-63
2023/02/09 00:17:37;;;;;;;31.52;20.30;;;-1.30;99.90;;;;;;5077447;28;20227;-63
2023/02/09 00:20:05;;;;;;;33.13;20.45;;;-1.30;99.90;;;;;;5077463;28;20212;-62
2023/02/09 00:22:32;;;;;;;36.35;20.67;;;-1.30;99.90;;;;;;5076942;28;20211;-61
2023/02/09 00:24:59;;;;;;;41.83;20.55;;;-1.40;99.90;;;;;;5075970;28;20643;-60
2023/02/09 00:27:26;;;;;;;31.77;20.75;;;-1.40;99.90;;;;;;5078370;28;20292;-62
2023/02/09 00:29:53;;;;;;;32.97;20.92;;;-1.40;99.90;;;;;;5079380;28;20207;-62
2023/02/09 00:32:19;;;;;;;38.88;21.50;;;-1.50;99.90;;;;;;5078396;28;20207;-62
2023/02/09 00:34:48;;;;;;;36.25;20.98;;;-1.50;99.90;;;;;;5077735;28;20197;-62
2023/02/09 00:37:14;;;;;;;36.05;21.70;;;-1.50;99.90;;;;;;5077241;28;20220;-61
2023/02/09 00:39:41;;;;;;;35.95;20.75;;;-1.60;99.90;;;;;;5079036;28;20201;-62
2023/02/09 00:42:09;;;;;;;32.10;18.85;;;-1.60;99.90;;;;;;5077160;28;20210;-62
2023/02/09 00:44:38;;;;;;;33.22;20.73;;;-1.60;99.90;;;;;;5077226;28;20227;-62
2023/02/09 00:47:07;;;;;;;28.52;19.15;;;-1.60;99.90;;;;;;5076934;28;20230;-63
2023/02/09 00:49:34;;;;;;;37.22;22.42;;;-1.60;99.90;;;;;;5076855;28;20198;-62
2023/02/09 00:52:02;;;;;;;31.33;19.23;;;-1.60;99.90;;;;;;5076739;28;20203;-62
2023/02/09 00:54:29;;;;;;;36.90;21.67;;;-1.60;99.90;;;;;;5076783;28;20251;-61
2023/02/09 00:56:57;;;;;;;36.83;21.58;;;-1.70;99.90;;;;;;5076767;28;20321;-62
2023/02/09 00:59:24;;;;;;;36.20;21.20;;;-1.70;99.90;;;;;;5076679;28;20201;-61
2023/02/09 01:01:51;;;;;;;39.13;22.15;;;-1.70;99.90;;;;;;5076319;28;20272;-61
2023/02/09 01:04:17;;;;;;;32.97;20.75;;;-1.70;99.90;;;;;;5076866;28;20226;-61
2023/02/09 01:06:44;;;;;;;38.40;21.45;;;-1.70;99.90;;;;;;5076465;28;20197;-62
2023/02/09 01:09:12;;;;;;;32.60;20.73;;;-1.70;99.90;;;;;;5076198;28;20570;-61
2023/02/09 01:11:39;;;;;;;35.60;19.45;;;-1.80;99.90;;;;;;5076066;28;20696;-61
2023/02/09 01:14:08;;;;;;;30.85;21.00;;;-1.80;99.90;;;;;;5076224;28;20222;-61
2023/02/09 01:16:35;;;;;;;37.83;21.80;;;-1.80;99.90;;;;;;5076116;28;20217;-62
2023/02/09 01:19:03;;;;;;;41.72;22.35;;;-1.80;99.90;;;;;;5075887;28;20675;-61
2023/02/09 01:21:30;;;;;;;35.58;22.20;;;-1.80;99.90;;;;;;5076308;28;20201;-61
2023/02/09 01:23:57;;;;;;;36.08;21.08;;;-1.80;99.90;;;;;;5075961;28;20584;-61
2023/02/09 01:26:25;;;;;;;33.10;20.13;;;-1.80;99.90;;;;;;5076022;28;20209;-61
2023/02/09 01:28:53;;;;;;;36.92;21.35;;;-1.80;99.90;;;;;;5076081;28;20211;-62
2023/02/09 01:31:25;;;;;;;34.53;21.38;;;-1.80;99.90;;;;;;5076087;28;20203;-62
2023/02/09 01:33:53;;;;;;;33.72;21.30;;;-1.80;99.90;;;;;;5099344;22;20248;-63
2023/02/09 01:36:21;;;;;;;36.33;23.95;;;-1.80;99.90;;;;;;5095792;28;20230;-64
2023/02/09 01:38:48;;;;;;;37.33;20.52;;;-1.80;99.90;;;;;;5095613;28;20197;-63
2023/02/09 01:41:15;;;;;;;35.08;20.85;;;-1.80;99.90;;;;;;5096107;28;20536;-62
2023/02/09 01:43:52;;;;;;;37.47;22.50;;;-1.80;99.90;;;;;;5096011;28;20229;-62
2023/02/09 01:46:19;;;;;;;34.03;19.60;;;-1.80;99.90;;;;;;5097079;28;20191;-63
2023/02/09 01:48:48;;;;;;;35.45;19.90;;;-1.80;99.90;;;;;;5096013;28;20230;-63
2023/02/09 01:51:15;;;;;;;31.90;20.17;;;-1.80;99.90;;;;;;5095906;28;20200;-64
2023/02/09 01:53:42;;;;;;;32.35;20.15;;;-1.80;99.90;;;;;;5095734;28;20217;-63
2023/02/09 01:56:14;;;;;;;35.63;22.15;;;-1.80;99.90;;;;;;5095635;28;20230;-62
2023/02/09 01:58:41;;;;;;;33.13;20.40;;;-1.80;99.90;;;;;;5095493;28;20188;-62
2023/02/09 02:01:09;;;;;;;33.60;20.33;;;-1.90;99.90;;;;;;5095783;28;20212;-62
2023/02/09 02:03:36;;;;;;;31.30;19.13;;;-1.90;99.90;;;;;;5095403;28;20230;-62
2023/02/09 02:06:08;;;;;;;29.45;18.95;;;-1.90;99.90;;;;;;5095466;28;20216;-62
2023/02/09 02:08:39;;;;;;;38.40;20.10;;;-1.90;99.90;;;;;;5095808;28;20194;-62
2023/02/09 02:11:08;;;;;;;36.08;19.27;;;-1.90;99.90;;;;;;5095369;28;20667;-62
2023/02/09 02:13:35;;;;;;;32.50;19.30;;;-1.90;99.90;;;;;;5095012;28;20716;-62
2023/02/09 02:16:06;;;;;;;33.05;20.25;;;-1.90;99.90;;;;;;5095126;28;20221;-62
2023/02/09 02:19:18;;;;;;;34.35;20.48;;;-1.90;99.90;;;;;;5097406;28;20189;-62
2023/02/09 02:22:19;;;;;;;32.00;20.40;;;-2.00;99.90;;;;;;5095408;28;20661;-63
2023/02/09 02:25:09;;;;;;;31.63;19.27;;;-2.00;99.90;;;;;;5062393;28;20227;-63
2023/02/09 02:27:43;;;;;;;27.08;17.50;;;-2.00;99.90;;;;;;5096302;28;20204;-62
2023/02/09 02:30:37;;;;;;;30.70;18.63;;;-2.00;99.90;;;;;;5096489;28;20187;-63
2023/02/09 02:33:29;;;;;;;35.85;19.65;;;-2.00;99.90;;;;;;5095547;28;20185;-63
2023/02/09 02:36:03;;;;;;;33.33;18.15;;;-2.00;99.90;;;;;;5095185;28;20572;-63
2023/02/09 02:38:36;;;;;;;31.13;20.10;;;-2.10;99.90;;;;;;5095265;28;20285;-63
2023/02/09 02:41:13;;;;;;;34.97;19.35;;;-2.10;99.90;;;;;;5094982;28;20190;-63
2023/02/09 02:43:49;;;;;;;31.23;18.38;;;-2.10;99.90;;;;;;5094817;28;20255;-62
2023/02/09 02:46:21;;;;;;;30.85;18.52;;;-2.10;99.90;;;;;;5094616;28;20198;-62
2023/02/09 02:48:55;;;;;;;32.40;18.65;;;-2.10;99.90;;;;;;5094795;28;20192;-62
2023/02/09 02:51:27;;;;;;;25.63;18.42;;;-2.10;99.90;;;;;;5094156;28;20189;-63
2023/02/09 02:53:57;;;;;;;28.35;16.90;;;-2.20;99.90;;;;;;5096722;28;20233;-63
2023/02/09 02:56:29;;;;;;;31.75;18.60;;;-2.20;99.90;;;;;;5096141;28;20204;-63
2023/02/09 02:58:58;;;;;;;35.20;18.90;;;-2.20;99.90;;;;;;5094660;28;20197;-63
2023/02/09 03:01:31;;;;;;;30.98;17.63;;;-2.20;99.90;;;;;;5095001;28;20201;-63
2023/02/09 03:04:01;;;;;;;27.17;17.88;;;-2.20;99.90;;;;;;5094643;28;20224;-62
2023/02/09 03:06:29;;;;;;;28.33;17.20;;;-2.30;99.90;;;;;;5094509;28;20199;-62
2023/02/09 03:08:57;;;;;;;29.15;17.55;;;-2.30;99.90;;;;;;5094594;28;20210;-61
2023/02/09 03:11:28;;;;;;;30.60;17.77;;;-2.30;99.90;;;;;;5095176;28;20200;-63
2023/02/09 03:14:20;;;;;;;31.75;17.17;;;-2.30;99.90;;;;;;5094492;28;20221;-63
2023/02/09 03:16:52;;;;;;;32.97;18.48;;;-2.30;99.90;;;;;;5094671;28;20210;-63
2023/02/09 03:19:38;;;;;;;33.72;17.25;;;-2.30;99.90;;;;;;5094727;28;20181;-62
2023/02/09 03:22:07;;;;;;;27.60;17.33;;;-2.30;99.90;;;;;;5095606;28;20219;-63
2023/02/09 03:24:45;;;;;;;25.40;15.90;;;-2.30;99.90;;;;;;5095530;28;20226;-63
2023/02/09 03:27:16;;;;;;;28.13;17.45;;;-2.30;99.90;;;;;;5094478;28;20184;-61
2023/02/09 03:29:45;;;;;;;29.85;17.10;;;-2.30;99.90;;;;;;5095030;28;20187;-63
2023/02/09 03:32:13;;;;;;;30.40;17.77;;;-2.40;99.90;;;;;;5094500;28;20206;-62
2023/02/09 03:34:41;;;;;;;30.08;17.10;;;-2.30;99.90;;;;;;5094418;28;20232;-62
2023/02/09 03:37:08;;;;;;;28.35;14.70;;;-2.40;99.90;;;;;;5094797;28;20229;-62
2023/02/09 03:39:35;;;;;;;30.33;15.70;;;-2.40;99.90;;;;;;5094400;28;20203;-62
2023/02/09 03:42:02;;;;;;;20.17;15.23;;;-2.40;99.90;;;;;;5094806;28;20201;-62
2023/02/09 03:44:29;;;;;;;25.70;15.52;;;-2.40;99.90;;;;;;5094988;28;20230;-63
2023/02/09 03:46:58;;;;;;;27.10;16.75;;;-2.40;99.90;;;;;;5094076;28;20667;-62
2023/02/09 03:49:25;;;;;;;24.40;14.65;;;-2.30;99.90;;;;;;5094595;28;20207;-62
2023/02/09 03:51:54;;;;;;;25.48;17.17;;;-2.40;99.90;;;;;;5097492;28;20212;-62
2023/02/09 03:54:21;;;;;;;23.73;15.40;;;-2.40;99.90;;;;;;5095638;28;20234;-62
2023/02/09 03:56:48;;;;;;;27.52;15.50;;;-2.40;99.90;;;;;;5094294;28;20242;-62
2023/02/09 03:59:15;;;;;;;23.23;14.80;;;-2.40;99.90;;;;;;5094849;28;20208;-62
2023/02/09 04:01:41;;;;;;;26.08;13.82;;;-2.40;99.90;;;;;;5094232;28;20211;-62
2023/02/09 04:04:08;;;;;;;27.20;14.43;;;-2.40;99.90;;;;;;5094639;28;20224;-62
2023/02/09 04:06:35;;;;;;;32.30;15.90;;;-2.40;99.90;;;;;;5093307;28;20202;-62
2023/02/09 04:11:09;;;;;;;25.55;14.63;;;-2.40;99.90;;;;;;5091624;28;20602;-61
2023/02/09 04:13:36;;;;;;;21.00;14.82;;;-2.40;99.90;;;;;;5091069;28;20248;-63
2023/02/09 04:16:03;;;;;;;24.55;14.15;;;-2.40;99.90;;;;;;5090735;28;20197;-62
2023/02/09 04:18:30;;;;;;;21.75;13.88;;;-2.40;99.90;;;;;;5091073;28;20576;-62
2023/02/09 04:21:06;;;;;;;26.02;16.17;;;-2.40;99.90;;;;;;5091282;28;20262;-61
2023/02/09 04:23:32;;;;;;;28.30;14.77;;;-2.40;99.90;;;;;;5090845;28;20320;-61
2023/02/09 04:25:59;;;;;;;26.33;15.18;;;-2.40;99.90;;;;;;5091287;28;20578;-62
2023/02/09 04:28:27;;;;;;;25.77;15.10;;;-2.40;99.90;;;;;;5090396;28;20690;-62
2023/02/09 04:30:55;;;;;;;27.42;15.52;;;-2.40;99.90;;;;;;5090961;28;20221;-62
2023/02/09 04:33:23;;;;;;;26.42;14.13;;;-2.40;99.90;;;;;;5090513;28;20217;-62
2023/02/09 04:35:50;;;;;;;31.05;15.02;;;-2.40;99.90;;;;;;5090452;28;20207;-62
2023/02/09 04:38:18;;;;;;;24.73;13.85;;;-2.50;99.90;;;;;;5090246;28;20568;-62
2023/02/09 04:40:45;;;;;;;22.50;13.02;;;-2.50;99.90;;;;;;5090537;28;20290;-62
2023/02/09 04:43:12;;;;;;;18.80;12.10;;;-2.60;99.90;;;;;;5090341;28;20222;-61
2023/02/09 04:45:41;;;;;;;19.98;13.50;;;-2.60;99.90;;;;;;5090009;28;20694;-62
2023/02/09 04:48:11;;;;;;;20.25;13.60;;;-2.60;99.90;;;;;;5099001;28;20266;-63
2023/02/09 04:50:37;;;;;;;19.85;12.88;;;-2.60;99.90;;;;;;5093795;28;20214;-61
2023/02/09 04:53:04;;;;;;;24.25;14.95;;;-2.60;99.90;;;;;;5090754;28;20212;-62
2023/02/09 04:55:31;;;;;;;20.70;13.05;;;-2.60;99.90;;;;;;5090450;28;20206;-62
2023/02/09 05:00:43;;;;;;;19.85;13.63;;;-2.60;99.90;;;;;;5092360;28;20222;-62
2023/02/09 05:03:10;;;;;;;21.42;14.38;;;-2.60;99.90;;;;;;5093472;28;20220;-62
2023/02/09 05:05:39;;;;;;;19.90;12.52;;;-2.60;99.90;;;;;;5090519;28;20221;-61
2023/02/09 05:08:06;;;;;;;19.33;12.43;;;-2.60;99.90;;;;;;5090237;28;20209;-61
2023/02/09 05:10:33;;;;;;;18.50;12.30;;;-2.60;99.90;;;;;;5089865;28;20229;-62
2023/02/09 05:12:59;;;;;;;21.13;13.50;;;-2.60;99.90;;;;;;5089815;28;20207;-62
2023/02/09 05:15:26;;;;;;;22.08;11.90;;;-2.60;99.90;;;;;;5089428;28;20215;-61
2023/02/09 05:17:55;;;;;;;17.60;11.95;;;-2.60;99.90;;;;;;5089652;28;20204;-62
2023/02/09 05:20:21;;;;;;;21.25;11.95;;;-2.60;99.90;;;;;;5088526;28;20201;-61
2023/02/09 05:22:48;;;;;;;26.35;11.85;;;-2.60;99.90;;;;;;5075920;28;20207;-62
2023/02/09 05:25:15;;;;;;;20.95;11.75;;;-2.60;99.90;;;;;;5076920;28;20208;-62
2023/02/09 05:27:42;;;;;;;17.50;11.02;;;-2.60;99.90;;;;;;5076083;28;20213;-62
2023/02/09 05:30:10;;;;;;;18.52;11.93;;;-2.60;99.90;;;;;;5076092;28;20224;-62
2023/02/09 05:32:37;;;;;;;19.67;10.57;;;-2.60;99.90;;;;;;5075932;28;20198;-62
2023/02/09 05:35:06;;;;;;;17.33;11.43;;;-2.60;99.90;;;;;;5075644;28;20570;-62
2023/02/09 05:37:33;;;;;;;19.60;11.55;;;-2.60;99.90;;;;;;5075679;28;20675;-62
2023/02/09 05:39:59;;;;;;;19.30;11.85;;;-2.50;99.90;;;;;;5076207;28;20200;-62
2023/02/09 05:42:26;;;;;;;16.98;11.10;;;-2.60;99.90;;;;;;5075787;28;20204;-61
2023/02/09 05:44:53;;;;;;;17.15;10.63;;;-2.60;99.90;;;;;;5075841;28;20222;-62
2023/02/09 05:47:22;;;;;;;18.73;9.70;;;-2.50;99.90;;;;;;5075772;28;20574;-62
2023/02/09 05:49:48;;;;;;;16.80;10.27;;;-2.50;99.90;;;;;;5075539;28;20245;-62
2023/02/09 05:52:17;;;;;;;16.23;9.82;;;-2.50;99.90;;;;;;5075287;28;20621;-62
2023/02/09 05:54:46;;;;;;;21.08;10.60;;;-2.50;99.90;;;;;;5075683;28;20223;-63
2023/02/09 05:57:13;;;;;;;14.52;10.25;;;-2.50;99.90;;;;;;5075557;28;20292;-63
2023/02/09 05:59:40;;;;;;;20.63;11.60;;;-2.50;99.90;;;;;;5075785;28;20213;-62
2023/02/09 06:02:07;;;;;;;17.30;10.75;;;-2.50;99.90;;;;;;5075392;28;20580;-61
2023/02/09 06:04:35;;;;;;;17.10;11.30;;;-2.40;99.90;;;;;;5074994;28;20217;-62
2023/02/09 06:07:02;;;;;;;20.02;11.90;;;-2.40;99.90;;;;;;5075343;28;20214;-61
2023/02/09 06:09:30;;;;;;;23.00;11.60;;;-2.40;99.90;;;;;;5073929;28;20215;-61
2023/02/09 06:11:57;;;;;;;14.32;8.77;;;-2.40;99.90;;;;;;5062752;28;20199;-62
2023/02/09 06:14:24;;;;;;;16.85;11.40;;;-2.40;99.90;;;;;;5063215;28;20230;-62
2023/02/09 06:16:51;;;;;;;14.95;8.88;;;-2.40;99.90;;;;;;5059486;28;20204;-62
2023/02/09 06:19:19;;;;;;;22.85;11.15;;;-2.40;99.90;;;;;;5055300;28;20215;-61
2023/02/09 06:21:46;;;;;;;17.35;11.70;;;-2.30;99.90;;;;;;5060092;28;20281;-62
2023/02/09 06:24:14;;;;;;;19.10;10.73;;;-2.40;99.90;;;;;;5052941;28;20700;-61
2023/02/09 06:26:42;;;;;;;22.33;11.77;;;-2.30;99.90;;;;;;5069829;28;20261;-62
2023/02/09 06:29:09;;;;;;;16.98;10.07;;;-2.30;99.90;;;;;;5069253;28;20200;-62
2023/02/09 06:31:36;;;;;;;17.92;11.45;;;-2.30;99.90;;;;;;5069490;28;20250;-62
2023/02/09 06:34:04;;;;;;;15.10;9.95;;;-2.30;99.90;;;;;;5065738;28;20219;-61
2023/02/09 06:36:31;;;;;;;17.00;12.77;;;-2.30;99.90;;;;;;5063256;28;20257;-63
2023/02/09 06:38:58;;;;;;;18.38;10.73;;;-2.30;99.90;;;;;;5063290;28;20199;-63
2023/02/09 06:41:25;;;;;;;19.23;11.07;;;-2.30;99.90;;;;;;5071103;28;20203;-62
2023/02/09 06:43:53;;;;;;;17.88;10.35;;;-2.30;99.90;;;;;;5067643;28;20222;-62
2023/02/09 06:46:20;;;;;;;20.77;10.85;;;-2.30;99.90;;;;;;5055869;28;20214;-61
2023/02/09 06:48:47;;;;;;;16.65;10.73;;;-2.20;99.90;;;;;;5055448;28;20196;-62
2023/02/09 06:51:15;;;;;;;20.75;10.23;;;-2.20;99.90;;;;;;5054647;28;20564;-60
2023/02/09 06:53:42;;;;;;;18.00;10.20;;;-2.20;99.90;;;;;;5057921;28;20592;-62
2023/02/09 06:56:10;;;;;;;55.45;13.20;;;-2.20;99.90;;;;;;5074606;28;20208;-63
2023/02/09 06:58:37;;;;;;;49.70;12.82;;;-2.10;99.90;;;;;;5058804;28;20204;-63
2023/02/09 07:01:06;;;;;;;18.27;10.82;;;-2.10;99.90;;;;;;5053624;28;20201;-61
2023/02/09 07:03:33;;;;;;;21.70;11.02;;;-2.10;99.90;;;;;;5053840;28;20229;-61
2023/02/09 07:06:04;;;;;;;29.58;10.90;;;-2.00;99.90;;;;;;5054520;28;20215;-62
2023/02/09 07:08:30;;;;;;;36.67;11.60;;;-2.00;99.90;;;;;;5054608;28;20204;-62
2023/02/09 07:11:00;;;;;;;39.97;14.15;;;-2.00;99.90;;;;;;5053843;28;20223;-63
2023/02/09 07:13:27;;;;;;;15.63;9.98;;;-2.00;99.90;;;;;;5054619;28;20231;-63
2023/02/09 07:15:58;;;;;;;17.80;10.20;;;-1.90;99.90;;;;;;5054596;28;20287;-62
2023/02/09 07:18:26;;;;;;;24.35;10.43;;;-1.80;99.90;;;;;;5054158;28;20270;-62
2023/02/09 07:20:54;;;;;;;15.77;9.68;;;-1.80;99.90;;;;;;5054338;28;20234;-63
2023/02/09 07:23:21;;;;;;;15.77;10.30;;;-1.70;99.90;;;;;;5053660;28;20269;-62
2023/02/09 07:25:48;;;;;;;16.05;10.07;;;-1.60;99.90;;;;;;5053784;28;20201;-61
2023/02/09 07:28:15;;;;;;;13.18;8.10;;;-1.50;99.90;;;;;;5054831;28;20235;-62
2023/02/09 07:30:42;;;;;;;14.25;9.52;;;-1.40;99.90;;;;;;5053363;28;20220;-62
2023/02/09 07:33:09;;;;;;;17.77;9.27;;;-1.20;99.90;;;;;;5054454;28;20235;-63
2023/02/09 07:35:39;;;;;;;13.85;9.25;;;-1.00;99.90;;;;;;5054539;28;20201;-61
2023/02/09 07:38:06;;;;;;;16.17;10.55;;;-0.80;99.90;;;;;;5054615;28;20201;-62
2023/02/09 07:40:33;;;;;;;14.88;9.30;;;-0.50;99.90;;;;;;5054282;28;20197;-62
2023/02/09 07:42:59;;;;;;;17.42;8.98;;;-0.40;99.90;;;;;;5053840;28;20201;-62
2023/02/09 07:45:26;;;;;;;14.30;8.73;;;-0.30;99.90;;;;;;5053770;28;20205;-62
2023/02/09 07:47:53;;;;;;;23.17;9.90;;;-0.30;99.90;;;;;;5053919;28;20273;-62
2023/02/09 07:50:20;;;;;;;19.63;9.85;;;-0.20;99.90;;;;;;5053891;28;20222;-62
2023/02/09 07:52:48;;;;;;;16.95;9.40;;;-0.20;99.90;;;;;;5054181;28;20209;-62
2023/02/09 07:55:15;;;;;;;11.48;8.38;;;-0.20;99.90;;;;;;5054064;28;20212;-62
2023/02/09 07:57:43;;;;;;;19.40;9.77;;;-0.10;99.90;;;;;;5053833;28;20205;-62
2023/02/09 08:00:11;;;;;;;24.90;10.63;;;-0.10;99.90;;;;;;5054085;28;20201;-62
2023/02/09 08:02:39;;;;;;;18.75;10.23;;;-0.10;99.90;;;;;;5054417;28;20213;-61
2023/02/09 08:05:11;;;;;;;19.98;10.70;;;-0.10;99.90;;;;;;5053565;28;20221;-62
2023/02/09 08:07:38;;;;;;;17.25;10.27;;;-0.10;99.80;;;;;;5054248;28;20189;-62
2023/02/09 08:10:06;;;;;;;18.83;9.38;;;-0.10;99.70;;;;;;5054287;28;20214;-62
2023/02/09 08:15:20;;;;;;;16.02;9.40;;;0.10;99.40;;;;;;5053512;28;20212;-63
2023/02/09 08:17:48;;;;;;;13.85;7.90;;;0.20;99.10;;;;;;5053943;28;20201;-63
2023/02/09 08:20:20;;;;;;;18.10;9.75;;;0.30;98.80;;;;;;5055443;28;20307;-62
2023/02/09 08:22:51;;;;;;;18.80;10.73;;;0.40;98.50;;;;;;5054018;28;20185;-63
2023/02/09 08:25:22;;;;;;;16.20;8.52;;;0.50;98.10;;;;;;5053909;28;20201;-62
2023/02/09 08:27:49;;;;;;;18.67;11.30;;;0.60;97.60;;;;;;5054771;28;20185;-63
2023/02/09 08:30:17;;;;;;;17.75;10.30;;;0.60;97.10;;;;;;5054661;28;20653;-62
2023/02/09 08:32:44;;;;;;;12.38;9.40;;;0.70;96.80;;;;;;5055985;28;20588;-62
2023/02/09 08:35:11;;;;;;;13.93;9.65;;;0.80;96.30;;;;;;5056955;28;20212;-62
2023/02/09 08:37:38;;;;;;;14.70;9.80;;;0.80;95.10;;;;;;5055890;28;20201;-62
2023/02/09 08:40:05;;;;;;;20.75;10.32;;;0.90;95.00;;;;;;5055262;28;20284;-62
2023/02/09 08:42:34;;;;;;;15.32;9.20;;;1.00;94.70;;;;;;5054720;28;20202;-62
2023/02/09 08:45:00;;;;;;;18.75;10.57;;;1.00;94.30;;;;;;5054892;28;20229;-62
2023/02/09 08:47:27;;;;;;;21.33;9.32;;;1.10;93.70;;;;;;5054797;28;20208;-62
2023/02/09 08:49:54;;;;;;;14.45;8.48;;;1.10;93.60;;;;;;5054946;28;20206;-62
2023/02/09 08:52:21;;;;;;;12.60;9.02;;;1.20;93.60;;;;;;5054857;28;20601;-63
2023/02/09 08:54:47;;;;;;;13.52;9.15;;;1.20;93.50;;;;;;5055004;28;20228;-62
2023/02/09 08:57:14;;;;;;;15.68;9.52;;;1.30;93.20;;;;;;5057065;28;20208;-62
2023/02/09 08:59:42;;;;;;;13.80;9.30;;;1.30;93.00;;;;;;5057624;28;20212;-62
2023/02/09 09:02:09;;;;;;;15.88;8.02;;;1.40;92.80;;;;;;5057142;28;20223;-62
2023/02/09 09:04:36;;;;;;;21.75;11.30;;;1.50;92.90;;;;;;5057481;28;20221;-62
2023/02/09 09:07:03;;;;;;;17.73;9.57;;;1.60;92.50;;;;;;5058250;28;20669;-62
2023/02/09 09:09:30;;;;;;;14.35;9.02;;;1.60;92.10;;;;;;5058337;28;20220;-62
2023/02/09 09:11:57;;;;;;;17.10;10.90;;;1.70;91.60;;;;;;5058094;28;20327;-61
2023/02/09 09:14:25;;;;;;;20.38;10.43;;;1.70;91.30;;;;;;5056926;28;20232;-62
2023/02/09 09:16:53;;;;;;;27.20;16.30;;;1.70;91.00;;;;;;5057436;28;20263;-62
2023/02/09 09:19:20;;;;;;;20.42;11.82;;;1.70;90.80;;;;;;5057548;28;20228;-62
2023/02/09 09:21:47;;;;;;;17.50;11.15;;;1.80;90.60;;;;;;5056908;28;20210;-61
2023/02/09 09:24:15;;;;;;;16.35;11.02;;;1.80;90.30;;;;;;5057385;28;20221;-62
2023/02/09 09:26:41;;;;;;;14.30;10.20;;;1.90;90.10;;;;;;5057105;28;20296;-61
2023/02/09 09:29:09;;;;;;;18.48;9.13;;;1.90;89.60;;;;;;5057638;28;20208;-62
2023/02/09 09:31:36;;;;;;;19.50;11.13;;;2.00;88.20;;;;;;5057651;28;20563;-61
2023/02/09 09:34:05;;;;;;;19.50;10.32;;;1.90;86.60;;;;;;5058216;28;20221;-62
2023/02/09 09:36:31;;;;;;;23.08;11.32;;;1.90;86.10;;;;;;5057227;28;20205;-62
2023/02/09 09:38:58;;;;;;;18.23;11.05;;;2.00;85.90;;;;;;5057739;28;20223;-62
2023/02/09 09:41:30;;;;;;;21.75;10.55;;;2.00;85.30;;;;;;5058434;28;20202;-62
2023/02/09 09:43:58;;;;;;;18.42;10.00;;;2.10;84.60;;;;;;5057596;28;20656;-62
2023/02/09 09:46:33;;;;;;;17.67;9.77;;;2.20;82.50;;;;;;5057247;28;20278;-62
2023/02/09 09:49:00;;;;;;;18.95;10.15;;;2.20;81.80;;;;;;5057691;28;20188;-62
2023/02/09 09:51:36;;;;;;;14.38;9.18;;;2.20;81.00;;;;;;5058190;28;20231;-62
2023/02/09 09:54:06;;;;;;;18.48;9.82;;;2.30;79.80;;;;;;5066419;28;20232;-62
2023/02/09 09:56:33;;;;;;;15.00;8.93;;;2.30;78.80;;;;;;5063502;28;20240;-62
2023/02/09 09:59:02;;;;;;;12.25;9.25;;;2.50;78.30;;;;;;5064219;28;20206;-63
2023/02/09 10:01:32;;;;;;;13.45;8.38;;;2.60;77.00;;;;;;5063933;28;20255;-62
2023/02/09 10:04:01;;;;;;;16.40;9.43;;;2.70;75.70;;;;;;5068237;28;20226;-62
2023/02/09 10:06:32;;;;;;;12.18;9.07;;;2.70;73.90;;;;;;5067969;28;20206;-62
2023/02/09 10:09:02;;;;;;;20.33;10.75;;;2.70;72.30;;;;;;5066363;28;20664;-62
2023/02/09 10:11:36;;;;;;;15.75;10.10;;;2.70;71.90;;;;;;5066833;28;20207;-63
2023/02/09 10:14:02;;;;;;;12.32;8.20;;;2.80;71.50;;;;;;5061891;28;20235;-62
2023/02/09 10:16:33;;;;;;;14.25;9.50;;;2.90;71.00;;;;;;5055292;28;20212;-63
2023/02/09 10:19:02;;;;;;;13.77;8.45;;;3.00;70.40;;;;;;5056265;28;20190;-62
2023/02/09 10:21:32;;;;;;;13.18;8.73;;;3.00;69.80;;;;;;5056469;28;20201;-63
2023/02/09 10:24:12;;;;;;;14.57;9.90;;;3.10;69.70;;;;;;5055486;28;20717;-63
2023/02/09 10:26:41;;;;;;;13.88;8.18;;;3.30;69.70;;;;;;5055807;28;20192;-63
2023/02/09 10:29:22;;;;;;;14.60;9.27;;;3.40;69.10;;;;;;5055891;28;20263;-62
2023/02/09 10:31:54;;;;;;;12.60;8.38;;;3.40;67.90;;;;;;5055621;28;20210;-62
2023/02/09 10:34:28;;;;;;;15.13;8.70;;;3.40;67.30;;;;;;5054943;28;20597;-62
2023/02/09 10:37:24;;;;;;;14.63;8.65;;;3.40;66.60;;;;;;5055670;28;20193;-62
2023/02/09 10:40:01;;;;;;;13.05;7.95;;;3.50;66.40;;;;;;5055627;28;20208;-63
2023/02/09 10:42:31;;;;;;;12.18;8.40;;;3.50;65.90;;;;;;5054820;28;20178;-63
2023/02/09 10:45:05;;;;;;;14.75;8.52;;;3.60;65.10;;;;;;5055458;28;20228;-63
2023/02/09 10:47:32;;;;;;;14.27;8.77;;;3.70;65.00;;;;;;5054681;28;20587;-63
2023/02/09 10:50:15;;;;;;;13.25;8.00;;;3.90;64.80;;;;;;5055143;28;20288;-63
2023/02/09 10:52:55;;;;;;;13.05;8.30;;;4.10;64.50;;;;;;5054727;28;20246;-63
2023/02/09 10:55:25;;;;;;;13.57;8.27;;;4.20;63.80;;;;;;5054850;28;20231;-64
2023/02/09 10:58:05;;;;;;;14.73;9.82;;;4.30;62.80;;;;;;5056068;28;20190;-63
2023/02/09 11:00:37;;;;;;;13.23;9.48;;;4.30;62.40;;;;;;5054610;28;20186;-64
2023/02/09 11:03:16;;;;;;;15.38;9.90;;;4.40;62.40;;;;;;5054363;28;20185;-63
2023/02/09 11:05:45;;;;;;;15.18;10.18;;;4.40;61.90;;;;;;5054142;28;20201;-63
2023/02/09 11:08:19;;;;;;;13.05;8.43;;;4.40;62.20;;;;;;5054523;28;20255;-63
2023/02/09 11:10:58;;;;;;;17.63;9.60;;;4.40;61.70;;;;;;5055272;28;20217;-64
2023/02/09 11:13:27;;;;;;;16.05;9.85;;;4.60;61.90;;;;;;5055777;28;20225;-63
2023/02/09 11:16:08;;;;;;;11.88;8.48;;;4.70;61.50;;;;;;5055327;28;20235;-63
2023/02/09 11:18:35;;;;;;;10.95;8.10;;;4.70;61.20;;;;;;5054435;28;20188;-63
2023/02/09 11:21:09;;;;;;;12.35;8.77;;;4.70;61.00;;;;;;5054921;28;20208;-63
2023/02/09 11:23:52;;;;;;;12.80;8.80;;;4.70;60.80;;;;;;5053733;28;20705;-62
2023/02/09 11:26:31;;;;;;;18.27;10.55;;;4.70;60.00;;;;;;5053928;28;20186;-62
2023/02/09 11:29:03;;;;;;;14.63;9.18;;;4.60;60.00;;;;;;5054233;28;20641;-64
2023/02/09 11:31:48;;;;;;;11.15;8.48;;;4.70;59.80;;;;;;5054182;28;20685;-63
2023/02/09 11:34:31;;;;;;;19.58;12.88;;;4.70;59.50;;;;;;5055037;28;20222;-63
2023/02/09 11:37:05;;;;;;;12.93;9.35;;;4.80;59.40;;;;;;5055021;28;20186;-67
2023/02/09 11:39:43;;;;;;;13.60;8.15;;;4.90;59.20;;;;;;5056041;28;20189;-64
2023/02/09 11:45:04;;;;;;;12.02;8.45;;;5.10;58.20;;;;;;5054440;28;20703;-63
2023/02/09 11:47:42;;;;;;;13.18;9.05;;;5.10;57.80;;;;;;5053464;28;20637;-63
2023/02/09 11:50:15;;;;;;;13.05;8.63;;;5.10;57.40;;;;;;5053553;28;20193;-63
2023/02/09 11:52:50;;;;;;;13.93;9.00;;;5.10;57.40;;;;;;5052944;28;20209;-63
2023/02/09 11:55:26;;;;;;;11.70;8.32;;;5.20;57.20;;;;;;5053435;28;20567;-63
2023/02/09 11:57:58;;;;;;;15.35;9.23;;;5.20;56.70;;;;;;5053740;28;20557;-63
2023/02/09 12:00:29;;;;;;;12.38;9.55;;;5.10;55.80;;;;;;5053360;28;20190;-63
2023/02/09 12:03:01;;;;;;;15.95;10.40;;;5.10;56.00;;;;;;5054727;28;20272;-63
2023/02/09 12:05:28;;;;;;;13.45;9.65;;;5.10;56.10;;;;;;5053790;28;20197;-63
2023/02/09 12:08:14;;;;;;;17.80;10.38;;;5.20;56.10;;;;;;5053390;28;20673;-63
2023/02/09 12:10:49;;;;;;;14.00;9.50;;;5.20;55.70;;;;;;5052872;28;20236;-63
2023/02/09 12:13:30;;;;;;;12.05;9.23;;;5.20;55.80;;;;;;5053885;28;20233;-63
2023/02/09 12:16:00;;;;;;;10.88;8.52;;;5.20;55.50;;;;;;5053841;28;20205;-63
2023/02/09 12:18:31;;;;;;;16.27;9.40;;;5.20;55.30;;;;;;5052759;28;20225;-64
2023/02/09 12:21:00;;;;;;;13.40;9.40;;;5.20;55.10;;;;;;5053694;28;20185;-63
2023/02/09 12:23:31;;;;;;;13.68;9.07;;;5.20;55.20;;;;;;5053678;28;20249;-64
2023/02/09 12:26:01;;;;;;;12.00;8.80;;;5.20;55.00;;;;;;5053871;28;20221;-62
2023/02/09 12:28:39;;;;;;;15.95;8.95;;;5.20;54.80;;;;;;5054059;28;20233;-64
2023/02/09 12:31:13;;;;;;;15.88;9.60;;;5.30;54.50;;;;;;5054637;28;20193;-64
2023/02/09 12:34:00;;;;;;;13.13;9.07;;;5.30;54.40;;;;;;5057756;28;20224;-63
2023/02/09 12:36:29;;;;;;;15.07;9.82;;;5.30;54.30;;;;;;5058173;28;20268;-64
2023/02/09 12:39:23;;;;;;;13.95;9.18;;;5.50;54.60;;;;;;5058443;28;20585;-64
2023/02/09 12:42:28;;;;;;;14.57;9.25;;;5.60;54.40;;;;;;5058957;28;20194;-63
2023/02/09 12:44:59;;;;;;;13.23;8.73;;;5.70;54.30;;;;;;5058283;28;20586;-64
2023/02/09 12:47:57;;;;;;;14.10;9.23;;;5.70;54.10;;;;;;5057986;28;20205;-64
2023/02/09 12:50:33;;;;;;;11.45;8.60;;;5.70;53.90;;;;;;5058295;28;20193;-63
2023/02/09 12:53:31;;;;;;;15.35;9.88;;;5.70;53.70;;;;;;5059276;28;20275;-63
2023/02/09 12:56:00;;;;;;;12.10;8.65;;;5.70;53.80;;;;;;5059060;28;20200;-64
2023/02/09 12:58:52;;;;;;;13.23;9.20;;;5.70;53.90;;;;;;5057202;28;20221;-63
2023/02/09 13:01:19;;;;;;;17.13;9.15;;;5.80;54.10;;;;;;5057641;28;20190;-64